sensor_id;sensor_type;location;lat;lon;timestamp;pressure;altitude;pressure_sealevel;temperature;humidity
23363;BME280;11853;48.080;11.960;2023-03-01T00:01:23;95308.81;;;1.63;95.06
23363;BME280;11853;48.080;11.960;2023-03-01T00:03:49;95307.59;;;1.69;94.69
23363;BME280;11853;48.080;11.960;2023-03-01T00:06:15;95310.69;;;1.61;94.88
23363;BME280;11853;48.080;11.960;2023-03-01T00:08:41;95308.31;;;1.56;94.30
23363;BME280;11853;48.080;11.960;2023-03-01T00:11:13;95310.03;;;1.57;94.70
23363;BME280;11853;48.080;11.960;2023-03-01T00:13:40;95307.31;;;1.59;95.26
23363;BME280;11853;48.080;11.960;2023-03-01T00:16:08;95307.13;;;1.62;94.76
23363;BME280;11853;48.080;11.960;2023-03-01T00:18:34;95309.75;;;1.62;93.98
23363;BME280;11853;48.080;11.960;2023-03-01T00:21:00;95313.00;;;1.66;92.53
23363;BME280;11853;48.080;11.960;2023-03-01T00:23:26;95308.31;;;1.56;94.78
23363;BME280;11853;48.080;11.960;2023-03-01T00:25:53;95309.16;;;1.57;94.45
23363;BME280;11853;48.080;11.960;2023-03-01T00:28:19;95308.13;;;1.60;93.90
23363;BME280;11853;48.080;11.960;2023-03-01T00:30:46;95302.41;;;1.53;95.16
23363;BME280;11853;48.080;11.960;2023-03-01T00:33:12;95301.59;;;1.37;94.92
23363;BME280;11853;48.080;11.960;2023-03-01T00:35:38;95304.38;;;1.49;94.75
23363;BME280;11853;48.080;11.960;2023-03-01T00:38:04;95305.88;;;1.53;95.18
23363;BME280;11853;48.080;11.960;2023-03-01T00:40:33;95308.91;;;1.62;93.76
23363;BME280;11853;48.080;11.960;2023-03-01T00:42:59;95293.47;;;1.57;93.59
23363;BME280;11853;48.080;11.960;2023-03-01T00:45:25;95295.16;;;1.58;94.08
23363;BME280;11853;48.080;11.960;2023-03-01T00:47:51;95302.13;;;1.43;94.63
23363;BME280;11853;48.080;11.960;2023-03-01T00:50:18;95303.44;;;1.50;93.99
23363;BME280;11853;48.080;11.960;2023-03-01T00:52:43;95290.78;;;1.43;94.06
23363;BME280;11853;48.080;11.960;2023-03-01T00:55:10;95295.34;;;1.39;94.24
23363;BME280;11853;48.080;11.960;2023-03-01T00:57:35;95287.44;;;1.41;94.49
23363;BME280;11853;48.080;11.960;2023-03-01T01:00:01;95290.31;;;1.36;94.74
23363;BME280;11853;48.080;11.960;2023-03-01T01:02:28;95283.22;;;1.38;95.58
23363;BME280;11853;48.080;11.960;2023-03-01T01:04:53;95281.88;;;1.31;96.72
23363;BME280;11853;48.080;11.960;2023-03-01T01:07:19;95266.72;;;1.38;94.27
23363;BME280;11853;48.080;11.960;2023-03-01T01:09:47;95263.81;;;1.42;95.66
23363;BME280;11853;48.080;11.960;2023-03-01T01:12:12;95258.09;;;1.35;94.23
23363;BME280;11853;48.080;11.960;2023-03-01T01:14:38;95262.31;;;1.38;95.23
23363;BME280;11853;48.080;11.960;2023-03-01T01:17:04;95262.16;;;1.25;95.68
23363;BME280;11853;48.080;11.960;2023-03-01T01:19:29;95262.38;;;1.37;95.51
23363;BME280;11853;48.080;11.960;2023-03-01T01:21:55;95258.28;;;1.32;95.06
23363;BME280;11853;48.080;11.960;2023-03-01T01:24:20;95252.28;;;1.46;94.01
23363;BME280;11853;48.080;11.960;2023-03-01T01:26:46;95250.56;;;1.45;94.26
23363;BME280;11853;48.080;11.960;2023-03-01T01:29:12;95247.66;;;1.35;94.22
23363;BME280;11853;48.080;11.960;2023-03-01T01:31:39;95247.59;;;1.21;94.92
23363;BME280;11853;48.080;11.960;2023-03-01T01:34:08;95244.38;;;1.32;95.23
23363;BME280;11853;48.080;11.960;2023-03-01T01:36:34;95239.47;;;1.26;96.16
23363;BME280;11853;48.080;11.960;2023-03-01T01:39:00;95234.66;;;1.34;95.09
23363;BME280;11853;48.080;11.960;2023-03-01T01:41:28;95234.47;;;1.37;95.03
23363;BME280;11853;48.080;11.960;2023-03-01T01:44:15;95232.81;;;1.36;95.33
23363;BME280;11853;48.080;11.960;2023-03-01T01:52:04;95226.19;;;1.15;96.42
23363;BME280;11853;48.080;11.960;2023-03-01T01:54:40;95218.19;;;1.18;96.30
23363;BME280;11853;48.080;11.960;2023-03-01T01:57:37;95215.28;;;1.22;96.04
23363;BME280;11853;48.080;11.960;2023-03-01T02:00:16;95208.13;;;1.26;95.93
23363;BME280;11853;48.080;11.960;2023-03-01T02:02:44;95215.03;;;1.27;95.97
23363;BME280;11853;48.080;11.960;2023-03-01T02:07:39;95212.03;;;1.19;96.14
23363;BME280;11853;48.080;11.960;2023-03-01T02:10:05;95204.00;;;1.22;96.03
23363;BME280;11853;48.080;11.960;2023-03-01T02:12:32;95220.16;;;1.28;96.05
23363;BME280;11853;48.080;11.960;2023-03-01T02:14:58;95212.63;;;1.24;95.61
23363;BME280;11853;48.080;11.960;2023-03-01T02:17:23;95204.19;;;1.19;95.39
23363;BME280;11853;48.080;11.960;2023-03-01T02:22:26;95208.28;;;1.23;95.24
23363;BME280;11853;48.080;11.960;2023-03-01T02:27:36;95197.53;;;1.29;94.34
23363;BME280;11853;48.080;11.960;2023-03-01T02:30:04;95190.19;;;1.20;94.86
23363;BME280;11853;48.080;11.960;2023-03-01T02:32:30;95195.41;;;1.20;95.41
23363;BME280;11853;48.080;11.960;2023-03-01T02:34:56;95192.84;;;1.34;94.12
23363;BME280;11853;48.080;11.960;2023-03-01T02:37:22;95202.56;;;1.32;94.53
23363;BME280;11853;48.080;11.960;2023-03-01T02:40:04;95194.72;;;1.32;94.77
23363;BME280;11853;48.080;11.960;2023-03-01T02:42:35;95197.13;;;1.21;94.88
23363;BME280;11853;48.080;11.960;2023-03-01T02:45:02;95192.72;;;1.21;94.67
23363;BME280;11853;48.080;11.960;2023-03-01T02:47:28;95193.91;;;1.16;95.18
23363;BME280;11853;48.080;11.960;2023-03-01T02:49:54;95200.47;;;1.23;93.86
23363;BME280;11853;48.080;11.960;2023-03-01T02:55:19;95194.75;;;1.16;94.66
23363;BME280;11853;48.080;11.960;2023-03-01T02:57:47;95191.06;;;1.04;95.18
23363;BME280;11853;48.080;11.960;2023-03-01T03:00:23;95195.44;;;1.04;95.01
23363;BME280;11853;48.080;11.960;2023-03-01T03:02:52;95185.78;;;1.20;93.85
23363;BME280;11853;48.080;11.960;2023-03-01T03:05:22;95187.94;;;1.13;94.17
23363;BME280;11853;48.080;11.960;2023-03-01T03:07:49;95195.94;;;1.10;93.24
23363;BME280;11853;48.080;11.960;2023-03-01T03:10:33;95191.91;;;1.05;93.52
23363;BME280;11853;48.080;11.960;2023-03-01T03:13:05;95189.13;;;1.08;93.65
23363;BME280;11853;48.080;11.960;2023-03-01T03:15:32;95189.16;;;0.92;94.01
23363;BME280;11853;48.080;11.960;2023-03-01T03:18:03;95188.88;;;0.97;94.68
23363;BME280;11853;48.080;11.960;2023-03-01T03:20:30;95186.09;;;1.00;93.44
23363;BME280;11853;48.080;11.960;2023-03-01T03:22:57;95188.03;;;0.96;93.87
23363;BME280;11853;48.080;11.960;2023-03-01T03:25:23;95189.22;;;0.90;93.50
23363;BME280;11853;48.080;11.960;2023-03-01T03:27:51;95188.38;;;0.90;94.22
23363;BME280;11853;48.080;11.960;2023-03-01T03:30:26;95194.09;;;0.97;93.37
23363;BME280;11853;48.080;11.960;2023-03-01T03:32:53;95195.63;;;0.85;93.49
23363;BME280;11853;48.080;11.960;2023-03-01T03:35:25;95185.38;;;0.82;93.47
23363;BME280;11853;48.080;11.960;2023-03-01T03:37:51;95184.53;;;0.81;93.90
23363;BME280;11853;48.080;11.960;2023-03-01T03:40:39;95181.81;;;0.83;94.63
23363;BME280;11853;48.080;11.960;2023-03-01T03:43:07;95178.28;;;0.84;94.28
23363;BME280;11853;48.080;11.960;2023-03-01T03:45:34;95177.03;;;0.75;94.80
23363;BME280;11853;48.080;11.960;2023-03-01T03:48:01;95178.28;;;0.84;93.92
23363;BME280;11853;48.080;11.960;2023-03-01T03:50:27;95176.50;;;0.84;93.35
23363;BME280;11853;48.080;11.960;2023-03-01T03:52:53;95174.44;;;0.75;92.81
23363;BME280;11853;48.080;11.960;2023-03-01T03:55:18;95168.38;;;0.75;93.21
23363;BME280;11853;48.080;11.960;2023-03-01T03:57:48;95165.75;;;0.75;93.46
23363;BME280;11853;48.080;11.960;2023-03-01T04:00:21;95174.44;;;0.75;93.72
23363;BME280;11853;48.080;11.960;2023-03-01T04:02:49;95168.53;;;0.72;93.86
23363;BME280;11853;48.080;11.960;2023-03-01T04:05:17;95166.31;;;0.80;93.02
23363;BME280;11853;48.080;11.960;2023-03-01T04:07:44;95166.59;;;0.59;93.65
23363;BME280;11853;48.080;11.960;2023-03-01T04:10:13;95173.31;;;0.48;94.34
23363;BME280;11853;48.080;11.960;2023-03-01T04:12:39;95157.84;;;0.60;93.46
23363;BME280;11853;48.080;11.960;2023-03-01T04:15:07;95166.94;;;0.69;92.50
23363;BME280;11853;48.080;11.960;2023-03-01T04:17:40;95154.78;;;0.68;93.15
23363;BME280;11853;48.080;11.960;2023-03-01T04:20:10;95165.84;;;0.57;92.99
23363;BME280;11853;48.080;11.960;2023-03-01T04:22:38;95167.19;;;0.49;93.54
23363;BME280;11853;48.080;11.960;2023-03-01T04:25:04;95170.81;;;0.46;93.26
23363;BME280;11853;48.080;11.960;2023-03-01T04:27:34;95168.69;;;0.37;95.51
23363;BME280;11853;48.080;11.960;2023-03-01T04:30:01;95172.47;;;0.31;96.19
23363;BME280;11853;48.080;11.960;2023-03-01T04:32:26;95163.22;;;0.41;95.37
23363;BME280;11853;48.080;11.960;2023-03-01T04:34:52;95158.09;;;0.56;93.80
23363;BME280;11853;48.080;11.960;2023-03-01T04:37:17;95163.72;;;0.48;94.51
23363;BME280;11853;48.080;11.960;2023-03-01T04:40:14;95167.44;;;0.44;94.50
23363;BME280;11853;48.080;11.960;2023-03-01T04:42:42;95166.25;;;0.34;94.97
23363;BME280;11853;48.080;11.960;2023-03-01T04:45:08;95166.84;;;0.39;95.54
23363;BME280;11853;48.080;11.960;2023-03-01T04:47:43;95160.28;;;0.32;95.30
23363;BME280;11853;48.080;11.960;2023-03-01T04:53:33;95160.63;;;0.41;94.43
23363;BME280;11853;48.080;11.960;2023-03-01T04:56:01;95158.25;;;0.37;95.14
23363;BME280;11853;48.080;11.960;2023-03-01T04:58:27;95158.69;;;0.45;93.61
23363;BME280;11853;48.080;11.960;2023-03-01T05:00:53;95155.72;;;0.51;93.54
23363;BME280;11853;48.080;11.960;2023-03-01T05:03:19;95162.81;;;0.49;93.05
23363;BME280;11853;48.080;11.960;2023-03-01T05:05:47;95155.97;;;0.31;94.00
23363;BME280;11853;48.080;11.960;2023-03-01T05:08:13;95155.53;;;0.22;94.76
23363;BME280;11853;48.080;11.960;2023-03-01T05:10:44;95153.72;;;0.40;94.20
23363;BME280;11853;48.080;11.960;2023-03-01T05:13:11;95150.53;;;0.35;94.48
23363;BME280;11853;48.080;11.960;2023-03-01T05:15:39;95144.88;;;0.27;94.39
23363;BME280;11853;48.080;11.960;2023-03-01T05:18:04;95155.53;;;0.22;95.55
23363;BME280;11853;48.080;11.960;2023-03-01T05:20:37;95141.00;;;0.18;95.06
23363;BME280;11853;48.080;11.960;2023-03-01T05:23:03;95142.78;;;0.18;94.74
23363;BME280;11853;48.080;11.960;2023-03-01T05:25:31;95140.34;;;0.15;95.48
23363;BME280;11853;48.080;11.960;2023-03-01T05:28:01;95144.09;;;0.25;95.11
23363;BME280;11853;48.080;11.960;2023-03-01T05:30:33;95143.94;;;0.12;95.00
23363;BME280;11853;48.080;11.960;2023-03-01T05:32:59;95140.75;;;0.07;96.40
23363;BME280;11853;48.080;11.960;2023-03-01T05:35:25;95148.81;;;0.18;96.01
23363;BME280;11853;48.080;11.960;2023-03-01T05:37:51;95139.97;;;0.05;96.14
23363;BME280;11853;48.080;11.960;2023-03-01T05:40:19;95135.03;;;0.16;95.85
23363;BME280;11853;48.080;11.960;2023-03-01T05:42:47;95139.72;;;0.10;95.74
23363;BME280;11853;48.080;11.960;2023-03-01T05:45:14;95135.13;;;0.15;96.01
23363;BME280;11853;48.080;11.960;2023-03-01T05:47:41;95137.78;;;0.13;95.16
23363;BME280;11853;48.080;11.960;2023-03-01T05:50:21;95136.84;;;-0.02;95.83
23363;BME280;11853;48.080;11.960;2023-03-01T05:52:49;95138.38;;;0.03;96.25
23363;BME280;11853;48.080;11.960;2023-03-01T05:55:20;95133.31;;;-0.01;96.61
23363;BME280;11853;48.080;11.960;2023-03-01T05:57:47;95130.97;;;-0.05;96.43
23363;BME280;11853;48.080;11.960;2023-03-01T06:00:14;95142.47;;;-0.09;95.88
23363;BME280;11853;48.080;11.960;2023-03-01T06:02:40;95142.91;;;-0.17;97.30
23363;BME280;11853;48.080;11.960;2023-03-01T06:05:08;95141.97;;;-0.16;97.25
23363;BME280;11853;48.080;11.960;2023-03-01T06:07:34;95147.41;;;-0.20;98.34
23363;BME280;11853;48.080;11.960;2023-03-01T06:10:00;95146.28;;;-0.32;98.86
23363;BME280;11853;48.080;11.960;2023-03-01T06:12:25;95141.00;;;-0.31;98.71
23363;BME280;11853;48.080;11.960;2023-03-01T06:14:51;95143.41;;;-0.10;98.52
23363;BME280;11853;48.080;11.960;2023-03-01T06:17:17;95149.13;;;-0.04;97.12
23363;BME280;11853;48.080;11.960;2023-03-01T06:19:42;95137.69;;;-0.01;97.04
23363;BME280;11853;48.080;11.960;2023-03-01T06:22:07;95142.41;;;-0.08;97.79
23363;BME280;11853;48.080;11.960;2023-03-01T06:24:33;95146.25;;;-0.15;97.48
23363;BME280;11853;48.080;11.960;2023-03-01T06:26:59;95146.78;;;-0.08;98.13
23363;BME280;11853;48.080;11.960;2023-03-01T06:29:25;95143.72;;;-0.16;99.02
23363;BME280;11853;48.080;11.960;2023-03-01T06:31:50;95152.28;;;-0.14;98.86
23363;BME280;11853;48.080;11.960;2023-03-01T06:34:16;95148.00;;;-0.15;99.42
23363;BME280;11853;48.080;11.960;2023-03-01T06:36:41;95143.41;;;-0.10;99.23
23363;BME280;11853;48.080;11.960;2023-03-01T06:39:07;95150.16;;;0.10;96.75
23363;BME280;11853;48.080;11.960;2023-03-01T06:41:33;95145.28;;;0.04;96.31
23363;BME280;11853;48.080;11.960;2023-03-01T06:43:59;95146.63;;;-0.05;97.97
23363;BME280;11853;48.080;11.960;2023-03-01T06:46:25;95144.91;;;-0.06;98.89
23363;BME280;11853;48.080;11.960;2023-03-01T06:48:51;95146.72;;;0.09;96.95
23363;BME280;11853;48.080;11.960;2023-03-01T06:51:16;95149.91;;;-0.02;97.33
23363;BME280;11853;48.080;11.960;2023-03-01T06:53:42;95154.94;;;0.02;97.38
23363;BME280;11853;48.080;11.960;2023-03-01T06:56:07;95158.22;;;0.05;97.61
23363;BME280;11853;48.080;11.960;2023-03-01T06:58:33;95156.06;;;0.13;97.31
23363;BME280;11853;48.080;11.960;2023-03-01T07:01:00;95157.28;;;-0.10;97.97
23363;BME280;11853;48.080;11.960;2023-03-01T07:03:30;95153.28;;;0.16;97.11
23363;BME280;11853;48.080;11.960;2023-03-01T07:05:55;95157.88;;;0.11;97.70
23363;BME280;11853;48.080;11.960;2023-03-01T07:08:21;95156.31;;;0.09;96.70
23363;BME280;11853;48.080;11.960;2023-03-01T07:10:46;95157.03;;;-0.05;98.03
23363;BME280;11853;48.080;11.960;2023-03-01T07:13:12;95146.13;;;0.04;97.11
23363;BME280;11853;48.080;11.960;2023-03-01T07:15:40;95151.59;;;0.15;96.52
23363;BME280;11853;48.080;11.960;2023-03-01T07:18:05;95137.19;;;0.08;96.03
23363;BME280;11853;48.080;11.960;2023-03-01T07:20:31;95144.19;;;0.08;96.94
23363;BME280;11853;48.080;11.960;2023-03-01T07:22:59;95143.19;;;0.10;96.01
23363;BME280;11853;48.080;11.960;2023-03-01T07:25:24;95150.78;;;-0.18;97.67
23363;BME280;11853;48.080;11.960;2023-03-01T07:27:51;95146.28;;;0.01;97.03
23363;BME280;11853;48.080;11.960;2023-03-01T07:30:17;95144.19;;;-0.08;96.35
23363;BME280;11853;48.080;11.960;2023-03-01T07:32:43;95135.75;;;0.03;96.63
23363;BME280;11853;48.080;11.960;2023-03-01T07:35:10;95135.47;;;-0.09;96.24
23363;BME280;11853;48.080;11.960;2023-03-01T07:37:36;95135.09;;;-0.01;96.87
23363;BME280;11853;48.080;11.960;2023-03-01T07:40:01;95132.66;;;-0.04;97.64
23363;BME280;11853;48.080;11.960;2023-03-01T07:42:27;95132.47;;;-0.01;95.98
23363;BME280;11853;48.080;11.960;2023-03-01T07:44:53;95133.75;;;-0.08;96.38
23363;BME280;11853;48.080;11.960;2023-03-01T07:47:18;95127.03;;;0.19;100.00
23363;BME280;11853;48.080;11.960;2023-03-01T07:49:44;95127.44;;;0.59;100.00
23363;BME280;11853;48.080;11.960;2023-03-01T07:52:11;95131.31;;;0.68;100.00
23363;BME280;11853;48.080;11.960;2023-03-01T07:54:37;95124.53;;;0.80;100.00
23363;BME280;11853;48.080;11.960;2023-03-01T07:57:03;95124.66;;;1.08;100.00
23363;BME280;11853;48.080;11.960;2023-03-01T07:59:29;95116.75;;;0.94;93.47
23363;BME280;11853;48.080;11.960;2023-03-01T08:01:56;95124.75;;;0.61;93.91
23363;BME280;11853;48.080;11.960;2023-03-01T08:04:22;95118.00;;;0.57;93.85
23363;BME280;11853;48.080;11.960;2023-03-01T08:06:50;95124.50;;;0.34;94.66
23363;BME280;11853;48.080;11.960;2023-03-01T08:09:17;95123.06;;;0.28;95.70
23363;BME280;11853;48.080;11.960;2023-03-01T08:11:43;95120.22;;;0.33;95.33
23363;BME280;11853;48.080;11.960;2023-03-01T08:14:08;95113.81;;;0.07;96.14
23363;BME280;11853;48.080;11.960;2023-03-01T08:16:36;95120.38;;;0.14;96.09
23363;BME280;11853;48.080;11.960;2023-03-01T08:19:10;95113.66;;;0.26;95.84
23363;BME280;11853;48.080;11.960;2023-03-01T08:21:36;95118.13;;;0.24;96.00
23363;BME280;11853;48.080;11.960;2023-03-01T08:24:04;95124.84;;;0.28;95.18
23363;BME280;11853;48.080;11.960;2023-03-01T08:26:30;95120.47;;;0.44;93.78
23363;BME280;11853;48.080;11.960;2023-03-01T08:28:55;95118.88;;;0.41;95.55
23363;BME280;11853;48.080;11.960;2023-03-01T08:33:52;95125.78;;;0.58;94.13
23363;BME280;11853;48.080;11.960;2023-03-01T08:36:31;95110.78;;;0.62;93.93
23363;BME280;11853;48.080;11.960;2023-03-01T08:38:57;95108.56;;;0.54;95.16
23363;BME280;11853;48.080;11.960;2023-03-01T08:41:23;95099.56;;;0.60;94.46
23363;BME280;11853;48.080;11.960;2023-03-01T08:43:49;95092.78;;;0.57;94.13
23363;BME280;11853;48.080;11.960;2023-03-01T08:46:17;95102.28;;;0.58;94.17
23363;BME280;11853;48.080;11.960;2023-03-01T08:48:43;95101.09;;;0.48;94.44
23363;BME280;11853;48.080;11.960;2023-03-01T08:51:11;95100.69;;;0.56;94.94
23363;BME280;11853;48.080;11.960;2023-03-01T08:53:39;95103.22;;;0.57;95.35
23363;BME280;11853;48.080;11.960;2023-03-01T08:56:05;95099.16;;;0.67;94.55
23363;BME280;11853;48.080;11.960;2023-03-01T08:58:31;95095.94;;;0.62;94.76
23363;BME280;11853;48.080;11.960;2023-03-01T09:00:58;95097.81;;;0.60;94.60
23363;BME280;11853;48.080;11.960;2023-03-01T09:03:24;95100.81;;;0.68;94.97
23363;BME280;11853;48.080;11.960;2023-03-01T09:05:52;95101.22;;;0.77;94.39
23363;BME280;11853;48.080;11.960;2023-03-01T09:08:18;95095.75;;;0.81;94.40
23363;BME280;11853;48.080;11.960;2023-03-01T09:10:45;95095.22;;;0.90;94.14
23363;BME280;11853;48.080;11.960;2023-03-01T09:13:10;95101.28;;;0.91;92.51
23363;BME280;11853;48.080;11.960;2023-03-01T09:15:37;95083.97;;;1.04;93.32
23363;BME280;11853;48.080;11.960;2023-03-01T09:18:04;95086.22;;;1.10;92.70
23363;BME280;11853;48.080;11.960;2023-03-01T09:20:31;95082.31;;;1.03;91.59
23363;BME280;11853;48.080;11.960;2023-03-01T09:22:57;95075.03;;;1.08;92.20
23363;BME280;11853;48.080;11.960;2023-03-01T09:25:23;95080.59;;;1.02;92.77
23363;BME280;11853;48.080;11.960;2023-03-01T09:27:53;95084.41;;;0.97;93.55
23363;BME280;11853;48.080;11.960;2023-03-01T09:30:19;95071.38;;;1.11;93.39
23363;BME280;11853;48.080;11.960;2023-03-01T09:32:45;95085.03;;;1.16;93.05
23363;BME280;11853;48.080;11.960;2023-03-01T09:35:11;95090.78;;;1.07;92.17
23363;BME280;11853;48.080;11.960;2023-03-01T09:37:37;95084.75;;;1.06;93.66
23363;BME280;11853;48.080;11.960;2023-03-01T09:40:04;95077.81;;;1.05;93.66
23363;BME280;11853;48.080;11.960;2023-03-01T09:42:33;95086.41;;;1.07;93.63
23363;BME280;11853;48.080;11.960;2023-03-01T09:45:11;95085.09;;;1.00;93.87
23363;BME280;11853;48.080;11.960;2023-03-01T09:47:41;95094.41;;;1.04;94.31
23363;BME280;11853;48.080;11.960;2023-03-01T09:50:15;95085.94;;;1.01;93.88
23363;BME280;11853;48.080;11.960;2023-03-01T09:53:03;95090.41;;;0.99;93.26
23363;BME280;11853;48.080;11.960;2023-03-01T10:00:57;95083.03;;;1.05;94.06
23363;BME280;11853;48.080;11.960;2023-03-01T10:03:36;95078.50;;;1.09;94.31
23363;BME280;11853;48.080;11.960;2023-03-01T10:08:39;95077.44;;;1.11;91.80
23363;BME280;11853;48.080;11.960;2023-03-01T10:11:23;95068.53;;;1.30;91.29
23363;BME280;11853;48.080;11.960;2023-03-01T10:19:14;95078.34;;;1.41;90.55
23363;BME280;11853;48.080;11.960;2023-03-01T10:21:45;95073.16;;;1.55;90.70
23363;BME280;11853;48.080;11.960;2023-03-01T10:24:16;95060.16;;;1.53;90.51
23363;BME280;11853;48.080;11.960;2023-03-01T10:27:01;95072.47;;;1.66;91.28
23363;BME280;11853;48.080;11.960;2023-03-01T10:29:46;95075.56;;;2.01;88.30
23363;BME280;11853;48.080;11.960;2023-03-01T10:32:14;95073.00;;;1.99;89.02
23363;BME280;11853;48.080;11.960;2023-03-01T10:34:40;95079.47;;;1.94;89.25
23363;BME280;11853;48.080;11.960;2023-03-01T10:37:15;95063.50;;;1.98;89.95
23363;BME280;11853;48.080;11.960;2023-03-01T10:42:57;95062.13;;;2.20;87.40
23363;BME280;11853;48.080;11.960;2023-03-01T10:45:38;95042.75;;;1.95;88.60
23363;BME280;11853;48.080;11.960;2023-03-01T10:48:21;95041.91;;;2.36;87.17
23363;BME280;11853;48.080;11.960;2023-03-01T10:56:04;95020.09;;;3.03;84.43
23363;BME280;11853;48.080;11.960;2023-03-01T10:58:34;95012.56;;;3.36;83.71
23363;BME280;11853;48.080;11.960;2023-03-01T11:01:03;95006.88;;;3.68;81.40
23363;BME280;11853;48.080;11.960;2023-03-01T11:03:37;95011.59;;;3.63;81.37
23363;BME280;11853;48.080;11.960;2023-03-01T11:06:18;95006.44;;;3.74;79.42
23363;BME280;11853;48.080;11.960;2023-03-01T11:08:49;94997.00;;;3.72;81.44
23363;BME280;11853;48.080;11.960;2023-03-01T11:11:22;94990.41;;;4.16;79.87
23363;BME280;11853;48.080;11.960;2023-03-01T11:14:06;94987.25;;;4.35;78.69
23363;BME280;11853;48.080;11.960;2023-03-01T11:16:35;94985.03;;;4.41;78.30
23363;BME280;11853;48.080;11.960;2023-03-01T11:24:06;94969.97;;;5.03;75.46
23363;BME280;11853;48.080;11.960;2023-03-01T11:26:41;94957.59;;;5.27;76.82
23363;BME280;11853;48.080;11.960;2023-03-01T11:29:27;94956.75;;;5.27;75.10
23363;BME280;11853;48.080;11.960;2023-03-01T11:31:58;94945.38;;;5.49;75.60
23363;BME280;11853;48.080;11.960;2023-03-01T11:37:22;94949.22;;;5.67;72.49
23363;BME280;11853;48.080;11.960;2023-03-01T11:40:17;94945.75;;;5.33;73.84
23363;BME280;11853;48.080;11.960;2023-03-01T11:42:54;94945.38;;;5.37;74.82
23363;BME280;11853;48.080;11.960;2023-03-01T11:45:23;94931.16;;;5.40;76.05
23363;BME280;11853;48.080;11.960;2023-03-01T11:48:07;94939.06;;;5.51;73.17
23363;BME280;11853;48.080;11.960;2023-03-01T11:50:46;94946.47;;;5.57;73.98
23363;BME280;11853;48.080;11.960;2023-03-01T11:56:08;94931.75;;;5.66;74.07
23363;BME280;11853;48.080;11.960;2023-03-01T11:58:49;94936.78;;;5.58;73.03
23363;BME280;11853;48.080;11.960;2023-03-01T12:04:16;94922.78;;;5.57;75.46
23363;BME280;11853;48.080;11.960;2023-03-01T12:07:00;94925.41;;;5.46;74.03
23363;BME280;11853;48.080;11.960;2023-03-01T12:09:47;94921.13;;;5.56;75.78
23363;BME280;11853;48.080;11.960;2023-03-01T12:20:20;94909.22;;;6.18;72.43
23363;BME280;11853;48.080;11.960;2023-03-01T12:23:22;94907.47;;;5.96;74.31
23363;BME280;11853;48.080;11.960;2023-03-01T12:29:27;94901.69;;;6.02;72.65
23363;BME280;11853;48.080;11.960;2023-03-01T12:32:20;94890.34;;;6.02;73.19
23363;BME280;11853;48.080;11.960;2023-03-01T12:42:54;94891.22;;;5.57;75.21
23363;BME280;11853;48.080;11.960;2023-03-01T12:50:52;94882.38;;;5.58;76.98
23363;BME280;11853;48.080;11.960;2023-03-01T12:53:35;94886.41;;;5.74;76.58
23363;BME280;11853;48.080;11.960;2023-03-01T12:56:06;94881.97;;;5.85;76.62
23363;BME280;11853;48.080;11.960;2023-03-01T13:09:55;94886.66;;;5.71;78.06
23363;BME280;11853;48.080;11.960;2023-03-01T13:17:52;94869.03;;;5.82;76.41
23363;BME280;11853;48.080;11.960;2023-03-01T13:20:20;94867.38;;;5.81;77.56
23363;BME280;11853;48.080;11.960;2023-03-01T13:22:47;94860.31;;;5.82;77.17
23363;BME280;11853;48.080;11.960;2023-03-01T13:25:16;94852.16;;;5.85;77.88
23363;BME280;11853;48.080;11.960;2023-03-01T13:27:46;94848.34;;;5.78;77.38
23363;BME280;11853;48.080;11.960;2023-03-01T13:30:41;94843.88;;;6.01;77.05
23363;BME280;11853;48.080;11.960;2023-03-01T13:35:48;94850.00;;;6.01;77.51
23363;BME280;11853;48.080;11.960;2023-03-01T13:49:53;94844.75;;;5.90;78.20
23363;BME280;11853;48.080;11.960;2023-03-01T13:52:34;94845.94;;;5.86;79.43
23363;BME280;11853;48.080;11.960;2023-03-01T13:55:03;94843.78;;;5.91;79.32
23363;BME280;11853;48.080;11.960;2023-03-01T13:57:36;94851.16;;;6.08;78.54
23363;BME280;11853;48.080;11.960;2023-03-01T14:03:19;94842.50;;;6.18;78.14
23363;BME280;11853;48.080;11.960;2023-03-01T14:08:32;94827.56;;;6.39;77.49
23363;BME280;11853;48.080;11.960;2023-03-01T14:11:29;94823.97;;;6.40;76.71
23363;BME280;11853;48.080;11.960;2023-03-01T14:19:27;94813.56;;;6.39;76.33
23363;BME280;11853;48.080;11.960;2023-03-01T14:24:37;94812.06;;;6.25;77.91
23363;BME280;11853;48.080;11.960;2023-03-01T14:27:03;94802.41;;;6.35;76.09
23363;BME280;11853;48.080;11.960;2023-03-01T14:29:37;94804.81;;;6.38;76.11
23363;BME280;11853;48.080;11.960;2023-03-01T14:32:32;94816.72;;;6.32;77.13
23363;BME280;11853;48.080;11.960;2023-03-01T14:34:59;94814.00;;;6.23;78.07
23363;BME280;11853;48.080;11.960;2023-03-01T14:37:30;94810.91;;;6.18;78.57
23363;BME280;11853;48.080;11.960;2023-03-01T14:39:58;94810.41;;;6.24;79.04
23363;BME280;11853;48.080;11.960;2023-03-01T14:42:27;94804.47;;;6.31;78.05
23363;BME280;11853;48.080;11.960;2023-03-01T14:44:56;94800.81;;;6.23;77.84
23363;BME280;11853;48.080;11.960;2023-03-01T14:47:28;94800.09;;;6.21;77.79
23363;BME280;11853;48.080;11.960;2023-03-01T14:50:02;94799.66;;;6.16;78.39
23363;BME280;11853;48.080;11.960;2023-03-01T14:52:39;94806.91;;;6.02;79.78
23363;BME280;11853;48.080;11.960;2023-03-01T14:55:10;94801.06;;;6.20;78.87
23363;BME280;11853;48.080;11.960;2023-03-01T14:57:43;94796.31;;;6.14;79.38
23363;BME280;11853;48.080;11.960;2023-03-01T15:00:23;94803.00;;;6.18;79.08
23363;BME280;11853;48.080;11.960;2023-03-01T15:02:51;94790.91;;;6.15;80.36
23363;BME280;11853;48.080;11.960;2023-03-01T15:05:31;94797.97;;;6.15;80.43
23363;BME280;11853;48.080;11.960;2023-03-01T15:07:58;94790.59;;;6.08;80.57
23363;BME280;11853;48.080;11.960;2023-03-01T15:10:30;94791.00;;;6.25;80.45
23363;BME280;11853;48.080;11.960;2023-03-01T15:13:13;94797.41;;;6.32;80.63
23363;BME280;11853;48.080;11.960;2023-03-01T15:15:44;94787.13;;;6.29;80.57
23363;BME280;11853;48.080;11.960;2023-03-01T15:18:21;94788.94;;;6.28;79.66
23363;BME280;11853;48.080;11.960;2023-03-01T15:20:49;94794.97;;;6.19;80.56